Terminal Aerodrome Forecast
Issued by NWS Bismarck, ND

Home | Current Version | Previous Version | Text Only | Print | Product List | Glossary Off
Versions: 1 2 3 4 5 6 7 8 9 10 11 12 13 14 15 16 17 18 19

073
FTUS43 KBIS 171720
TAFISN
TAF
KISN 171720Z 1718/1818 27011KT P6SM FEW250
     FM180500 07005KT P6SM OVC050
     FM180700 05008KT 1 1/2SM -SN OVC030
     FM180900 05012G20KT 1 1/2SM -SN BLSN OVC015
     FM181600 01011KT 4SM -SN BKN020=

USA.gov is the U.S. government's official web portal to all federal, state and local government web resources and services.